Time;durP1;ratioP1;P1;durP2;ratioP2;P2;SDS_P1;SDS_P2;PMS_P1;PMS_P2;Temp;Humidity;BMP_temperature;BMP_pressure;BME280_temperature;BME280_humidity;BME280_pressure;Samples;Min_cycle;Max_cycle;Signal;HPM_P1;HPM_P2
2021/04/17 00:02:12;;;;;;;14.73;8.10;;;3.20;66.30;;;;;;6201195;23;20008;-69
2021/04/17 00:04:39;;;;;;;11.52;8.05;;;3.10;65.80;;;;;;6149976;23;20356;-68
2021/04/17 00:07:08;;;;;;;11.18;8.05;;;3.00;65.70;;;;;;6173745;23;20306;-68
2021/04/17 00:09:34;;;;;;;11.70;7.63;;;3.10;66.00;;;;;;6182820;23;20039;-68
2021/04/17 00:12:03;;;;;;;12.20;8.43;;;3.10;66.20;;;;;;6186792;23;20001;-69
2021/04/17 00:14:31;;;;;;;15.57;8.20;;;3.20;65.20;;;;;;6172112;23;20028;-68
2021/04/17 00:16:56;;;;;;;12.57;8.82;;;3.10;65.20;;;;;;6125208;23;20008;-67
2021/04/17 00:19:22;;;;;;;13.70;8.68;;;3.20;65.20;;;;;;6179346;23;20012;-68
2021/04/17 00:21:48;;;;;;;11.20;8.35;;;3.30;65.40;;;;;;6232916;23;20258;-69
2021/04/17 00:24:14;;;;;;;13.55;8.90;;;3.30;65.10;;;;;;6173567;23;20001;-68
2021/04/17 00:26:39;;;;;;;13.20;8.90;;;3.30;65.20;;;;;;6176118;23;20310;-68
2021/04/17 00:29:05;;;;;;;12.43;8.20;;;3.20;65.50;;;;;;6176522;23;20019;-68
2021/04/17 00:31:31;;;;;;;12.90;8.05;;;3.20;65.40;;;;;;6203534;23;20056;-68
2021/04/17 00:33:56;;;;;;;12.85;8.55;;;3.20;65.40;;;;;;6180737;23;20302;-68
2021/04/17 00:36:22;;;;;;;12.18;7.95;;;3.40;65.40;;;;;;6208703;23;19996;-68
2021/04/17 00:38:47;;;;;;;11.73;7.75;;;3.40;65.70;;;;;;6211286;23;20280;-68
2021/04/17 00:41:13;;;;;;;12.88;7.95;;;3.30;65.30;;;;;;6173533;23;20016;-69
2021/04/17 00:43:39;;;;;;;14.90;8.35;;;3.30;65.80;;;;;;6153496;23;20220;-69
2021/04/17 00:46:04;;;;;;;13.02;8.50;;;3.20;65.50;;;;;;6205453;23;20327;-69
2021/04/17 00:48:30;;;;;;;11.43;8.02;;;3.20;65.50;;;;;;6207051;23;20276;-69
2021/04/17 00:50:56;;;;;;;12.77;7.53;;;3.10;66.10;;;;;;6211027;23;20000;-69
2021/04/17 00:53:21;;;;;;;11.05;7.45;;;3.20;65.60;;;;;;6175527;23;20055;-68
2021/04/17 00:55:47;;;;;;;11.10;7.10;;;3.30;65.70;;;;;;6202108;23;20059;-69
2021/04/17 00:58:13;;;;;;;10.65;7.38;;;3.30;65.00;;;;;;6230330;23;20278;-69
2021/04/17 01:00:38;;;;;;;11.35;7.63;;;3.20;65.00;;;;;;6233236;23;20315;-69
2021/04/17 01:03:13;;;;;;;11.48;7.60;;;3.10;65.80;;;;;;6211062;23;20016;-68
2021/04/17 01:05:39;;;;;;;11.10;7.35;;;3.00;65.60;;;;;;6199718;23;20071;-68
2021/04/17 01:08:05;;;;;;;11.82;7.28;;;3.10;65.50;;;;;;6175903;23;20008;-68
2021/04/17 01:10:34;;;;;;;10.80;7.75;;;3.10;65.80;;;;;;6178173;23;20303;-68
2021/04/17 01:13:00;;;;;;;11.98;7.70;;;3.10;66.00;;;;;;6181667;23;20012;-69
2021/04/17 01:15:25;;;;;;;10.63;7.28;;;3.10;65.90;;;;;;6182257;23;20020;-69
2021/04/17 01:17:52;;;;;;;14.07;7.20;;;3.10;65.80;;;;;;6237529;23;20008;-69
2021/04/17 01:20:45;;;;;;;13.70;7.57;;;3.10;66.00;;;;;;6149531;23;20087;-69
2021/04/17 01:23:27;;;;;;;11.13;7.10;;;3.10;65.80;;;;;;6178593;23;20008;-69
2021/04/17 01:25:55;;;;;;;11.68;7.18;;;3.00;66.80;;;;;;6179932;23;20032;-69
2021/04/17 01:28:21;;;;;;;12.55;7.07;;;3.20;66.40;;;;;;6179054;23;20245;-68
2021/04/17 01:30:48;;;;;;;12.95;7.50;;;3.20;65.80;;;;;;6181392;23;20012;-68
2021/04/17 01:33:14;;;;;;;12.85;7.32;;;3.20;66.20;;;;;;6149539;23;20060;-68
2021/04/17 01:35:39;;;;;;;13.57;7.55;;;3.30;66.40;;;;;;6175766;23;20224;-68
2021/04/17 01:38:07;;;;;;;10.48;7.32;;;3.40;66.10;;;;;;6199725;23;20004;-67
2021/04/17 01:40:33;;;;;;;10.90;7.22;;;3.30;65.50;;;;;;6177904;23;20009;-69
2021/04/17 01:42:58;;;;;;;12.25;7.50;;;3.40;65.80;;;;;;6155281;23;20064;-68
2021/04/17 01:45:25;;;;;;;12.20;7.10;;;3.50;65.60;;;;;;6172604;23;20066;-68
2021/04/17 01:47:52;;;;;;;10.73;6.97;;;3.40;65.40;;;;;;6185740;23;20001;-68
2021/04/17 01:50:18;;;;;;;12.25;7.43;;;3.40;65.80;;;;;;6150753;23;20013;-69
2021/04/17 01:52:44;;;;;;;10.15;7.10;;;3.40;65.00;;;;;;6176974;23;20259;-68
2021/04/17 01:55:10;;;;;;;11.00;6.65;;;3.50;65.90;;;;;;6178415;23;20008;-68
2021/04/17 01:57:36;;;;;;;10.82;7.57;;;3.70;65.10;;;;;;6224715;23;20027;-69
2021/04/17 02:00:04;;;;;;;10.93;7.00;;;3.50;65.30;;;;;;6185479;23;20031;-69
2021/04/17 02:02:30;;;;;;;12.55;7.18;;;3.30;66.00;;;;;;6196469;23;20012;-68
2021/04/17 02:04:55;;;;;;;10.52;6.78;;;3.20;65.90;;;;;;6176267;23;20329;-69
2021/04/17 02:07:21;;;;;;;10.93;7.22;;;3.10;66.00;;;;;;6203188;23;20009;-68
2021/04/17 02:09:46;;;;;;;12.02;7.32;;;2.90;66.60;;;;;;6206165;23;20011;-68
2021/04/17 02:12:12;;;;;;;9.73;6.85;;;3.10;67.00;;;;;;6233910;23;20221;-68
2021/04/17 02:14:37;;;;;;;10.75;7.68;;;3.30;67.00;;;;;;6210476;23;20000;-68
2021/04/17 02:17:06;;;;;;;13.68;7.57;;;3.40;66.40;;;;;;6151371;23;20009;-68
2021/04/17 02:20:00;;;;;;;10.75;7.13;;;3.50;66.40;;;;;;6228665;23;20012;-68
2021/04/17 02:22:25;;;;;;;13.60;7.28;;;3.60;65.70;;;;;;6228625;23;20208;-68
2021/04/17 02:24:51;;;;;;;12.75;7.00;;;3.80;65.20;;;;;;6179875;23;20005;-68
2021/04/17 02:27:17;;;;;;;12.68;8.07;;;3.60;63.90;;;;;;6182526;23;20011;-68
2021/04/17 02:29:43;;;;;;;11.90;7.10;;;3.70;65.50;;;;;;6185256;23;20028;-68
2021/04/17 02:32:15;;;;;;;12.00;7.25;;;3.70;64.80;;;;;;6226466;23;20004;-68
2021/04/17 02:34:41;;;;;;;11.10;7.15;;;3.50;65.30;;;;;;6152720;23;20005;-68
2021/04/17 02:37:07;;;;;;;11.32;7.75;;;3.50;64.90;;;;;;6230316;23;20028;-68
2021/04/17 02:39:32;;;;;;;14.15;7.55;;;3.40;65.50;;;;;;6180738;23;20311;-68
2021/04/17 02:41:58;;;;;;;11.25;7.00;;;3.60;65.50;;;;;;6184908;23;20011;-68
2021/04/17 02:44:23;;;;;;;12.23;7.00;;;3.80;65.20;;;;;;6173781;23;20005;-68
2021/04/17 02:46:49;;;;;;;13.38;7.38;;;3.70;65.10;;;;;;6227367;23;20015;-68
2021/04/17 02:49:14;;;;;;;10.23;7.47;;;3.90;64.70;;;;;;6178296;23;20064;-68
2021/04/17 02:51:40;;;;;;;13.27;6.90;;;3.80;64.40;;;;;;6231873;23;20020;-68
2021/04/17 02:54:05;;;;;;;14.02;6.90;;;3.60;64.80;;;;;;6174876;23;19993;-68
2021/04/17 02:56:31;;;;;;;10.05;7.55;;;3.50;65.10;;;;;;6173079;23;20009;-68
2021/04/17 02:58:57;;;;;;;15.23;7.10;;;3.60;65.70;;;;;;6226068;23;20061;-68
2021/04/17 03:01:22;;;;;;;10.80;7.22;;;3.60;65.10;;;;;;6197520;23;20009;-68
2021/04/17 03:03:48;;;;;;;10.77;7.00;;;3.50;65.10;;;;;;6231627;23;20008;-68
2021/04/17 03:06:13;;;;;;;11.05;7.07;;;3.60;66.00;;;;;;6233790;23;19996;-69
2021/04/17 03:08:39;;;;;;;11.52;7.32;;;3.50;65.50;;;;;;6236139;23;20000;-68
2021/04/17 03:11:04;;;;;;;10.55;6.82;;;3.40;66.10;;;;;;6197608;23;20016;-68
2021/04/17 03:13:30;;;;;;;10.13;7.10;;;3.10;66.90;;;;;;6177529;23;20000;-68
2021/04/17 03:15:55;;;;;;;16.42;7.10;;;3.10;67.20;;;;;;6230791;23;20009;-68
2021/04/17 03:18:21;;;;;;;10.00;6.82;;;2.90;67.50;;;;;;6206759;23;20003;-68
2021/04/17 03:20:47;;;;;;;13.15;6.93;;;3.10;68.10;;;;;;6209698;23;20002;-68
2021/04/17 03:23:13;;;;;;;9.23;6.85;;;3.50;67.60;;;;;;6175139;23;20028;-68
2021/04/17 03:25:39;;;;;;;11.35;7.55;;;3.60;66.00;;;;;;6151905;23;20012;-68
2021/04/17 03:28:04;;;;;;;9.95;6.97;;;3.30;66.30;;;;;;6230317;23;20008;-68
2021/04/17 03:30:30;;;;;;;11.75;7.57;;;3.40;66.60;;;;;;6203970;23;20000;-68
2021/04/17 03:32:57;;;;;;;12.82;8.20;;;3.40;65.90;;;;;;6236402;23;19997;-68
2021/04/17 03:35:23;;;;;;;12.32;8.35;;;3.50;66.10;;;;;;6123750;23;20067;-68
2021/04/17 03:37:48;;;;;;;14.32;8.00;;;3.70;65.90;;;;;;6175767;23;20004;-68
2021/04/17 03:40:14;;;;;;;13.55;8.27;;;3.40;65.60;;;;;;6229149;23;20061;-68
2021/04/17 03:42:40;;;;;;;12.13;8.30;;;3.50;66.40;;;;;;6205257;23;20059;-68
2021/04/17 03:45:06;;;;;;;12.15;8.77;;;3.10;67.10;;;;;;6209579;23;20047;-69
2021/04/17 03:47:32;;;;;;;10.95;8.20;;;3.20;67.10;;;;;;6172951;23;20064;-68
2021/04/17 03:49:57;;;;;;;14.35;8.32;;;3.20;67.00;;;;;;6147764;23;20012;-69
2021/04/17 03:52:23;;;;;;;12.32;8.23;;;3.00;67.40;;;;;;6192252;23;20300;-68
2021/04/17 03:54:49;;;;;;;12.95;8.65;;;2.90;67.20;;;;;;6174934;23;20297;-68
2021/04/17 03:57:14;;;;;;;15.02;8.25;;;3.00;67.90;;;;;;6177622;23;20000;-68
2021/04/17 03:59:40;;;;;;;14.13;9.73;;;3.10;68.00;;;;;;6204737;23;20024;-68
2021/04/17 04:02:06;;;;;;;14.93;8.80;;;3.30;67.60;;;;;;6195508;23;20292;-68
2021/04/17 04:04:31;;;;;;;11.38;7.82;;;3.10;67.40;;;;;;6173864;23;20236;-68
2021/04/17 04:06:57;;;;;;;14.85;8.68;;;3.10;67.60;;;;;;6176321;23;20005;-68
2021/04/17 04:09:23;;;;;;;12.43;9.05;;;3.10;67.70;;;;;;6168470;23;20004;-68
2021/04/17 04:11:48;;;;;;;14.27;8.85;;;2.90;67.60;;;;;;6181664;23;20001;-69
2021/04/17 04:14:14;;;;;;;14.88;8.82;;;2.90;68.10;;;;;;6171011;23;20064;-68
2021/04/17 04:16:39;;;;;;;12.75;8.48;;;2.90;68.00;;;;;;6173398;23;20055;-68
2021/04/17 04:19:05;;;;;;;13.90;8.68;;;2.90;68.30;;;;;;6201643;23;20013;-68
2021/04/17 04:21:30;;;;;;;13.65;9.00;;;2.90;68.40;;;;;;6202723;23;20005;-68
2021/04/17 04:23:56;;;;;;;17.60;9.05;;;3.00;68.40;;;;;;6181294;23;20044;-68
2021/04/17 04:26:21;;;;;;;13.05;8.93;;;3.10;68.50;;;;;;6192383;23;20009;-68
2021/04/17 04:28:47;;;;;;;14.35;8.95;;;3.10;68.40;;;;;;6198713;23;20174;-68
2021/04/17 04:31:13;;;;;;;14.68;9.55;;;3.00;68.10;;;;;;6196932;23;20068;-68
2021/04/17 04:33:38;;;;;;;14.27;9.55;;;3.10;68.10;;;;;;6177035;23;20203;-70
2021/04/17 04:36:04;;;;;;;14.95;9.30;;;3.10;68.80;;;;;;6181781;23;19997;-73
2021/04/17 04:38:30;;;;;;;14.75;9.00;;;3.30;68.30;;;;;;6169172;23;20009;-72
2021/04/17 04:40:55;;;;;;;14.32;9.40;;;3.30;68.30;;;;;;6197136;23;20311;-70
2021/04/17 04:43:21;;;;;;;16.40;10.00;;;3.60;68.40;;;;;;6198980;23;20051;-71
2021/04/17 04:45:46;;;;;;;14.30;9.48;;;3.60;67.90;;;;;;6168894;23;20204;-72
2021/04/17 04:48:12;;;;;;;14.90;9.82;;;3.60;67.10;;;;;;6178820;23;20008;-70
2021/04/17 04:50:38;;;;;;;15.88;9.48;;;3.40;67.80;;;;;;6181222;23;20024;-72
2021/04/17 04:53:03;;;;;;;13.68;9.82;;;3.50;68.60;;;;;;6120013;23;20025;-72
2021/04/17 04:55:29;;;;;;;16.52;10.10;;;3.90;67.60;;;;;;6173591;23;20064;-71
2021/04/17 04:57:55;;;;;;;14.73;9.80;;;3.80;67.10;;;;;;6175667;23;20068;-72
2021/04/17 05:00:20;;;;;;;16.02;10.25;;;3.80;66.60;;;;;;6202480;23;20008;-72
2021/04/17 05:02:46;;;;;;;15.45;9.80;;;3.90;66.40;;;;;;6195705;23;20005;-71
2021/04/17 05:05:12;;;;;;;14.05;9.88;;;4.00;67.10;;;;;;6170622;23;20008;-72
2021/04/17 05:07:38;;;;;;;15.73;9.40;;;4.20;66.10;;;;;;6168955;23;20235;-71
2021/04/17 05:10:04;;;;;;;16.38;9.48;;;4.30;65.50;;;;;;6201464;23;20131;-72
2021/04/17 05:12:29;;;;;;;17.40;10.05;;;4.40;65.20;;;;;;6168339;23;20005;-72
2021/04/17 05:14:55;;;;;;;14.85;10.40;;;4.40;64.60;;;;;;6205947;23;19996;-73
2021/04/17 05:17:20;;;;;;;14.85;10.27;;;3.80;65.80;;;;;;6146011;23;20008;-73
2021/04/17 05:19:46;;;;;;;15.63;10.38;;;3.80;66.70;;;;;;6198217;23;20029;-71
2021/04/17 05:22:12;;;;;;;15.35;10.38;;;3.60;67.10;;;;;;6200495;23;20017;-72
2021/04/17 05:24:40;;;;;;;15.23;10.18;;;3.90;67.60;;;;;;6143992;23;20009;-71
2021/04/17 05:27:06;;;;;;;15.23;10.43;;;4.20;66.70;;;;;;6205849;23;20001;-72
2021/04/17 05:29:31;;;;;;;15.13;10.30;;;4.40;66.30;;;;;;6144639;23;20020;-71
2021/04/17 05:31:57;;;;;;;15.23;10.98;;;4.40;65.00;;;;;;6171018;23;20005;-70
2021/04/17 05:34:22;;;;;;;14.13;9.70;;;4.30;65.60;;;;;;6198259;23;20020;-72
2021/04/17 05:36:48;;;;;;;15.40;10.25;;;4.40;66.50;;;;;;6201056;23;20005;-72
2021/04/17 05:39:14;;;;;;;16.42;10.52;;;4.40;65.70;;;;;;6153753;23;19997;-72
2021/04/17 05:41:39;;;;;;;17.33;10.95;;;4.50;65.60;;;;;;6180660;23;20009;-71
2021/04/17 05:44:10;;;;;;;17.08;10.65;;;4.40;66.20;;;;;;6195673;23;20296;-72
2021/04/17 05:46:37;;;;;;;;;;;4.30;66.50;;;;;;6198349;23;20005;-74
2021/04/17 05:49:03;;;;;;;16.60;10.57;;;4.60;66.20;;;;;;6168157;23;20245;-71
2021/04/17 05:51:28;;;;;;;21.02;11.35;;;4.80;65.60;;;;;;6201960;23;20008;-68
2021/04/17 05:53:54;;;;;;;20.10;11.05;;;4.90;65.10;;;;;;6206557;23;20302;-68
2021/04/17 05:56:19;;;;;;;17.40;11.27;;;4.80;65.10;;;;;;6194568;23;20008;-70
2021/04/17 05:58:45;;;;;;;17.83;11.20;;;4.80;66.20;;;;;;6196325;23;20009;-71
2021/04/17 06:01:10;;;;;;;16.90;11.20;;;4.90;66.20;;;;;;6143913;23;20063;-69
2021/04/17 06:03:36;;;;;;;18.30;11.38;;;5.00;65.70;;;;;;6201525;23;20000;-70
2021/04/17 06:06:01;;;;;;;20.58;11.65;;;4.90;64.20;;;;;;6170389;23;19997;-69
2021/04/17 06:08:27;;;;;;;17.30;11.50;;;4.70;65.40;;;;;;6169532;23;20008;-74
2021/04/17 06:10:52;;;;;;;19.02;11.63;;;4.60;65.20;;;;;;6196104;23;20001;-70
2021/04/17 06:13:18;;;;;;;15.82;10.57;;;4.40;66.00;;;;;;6198557;23;20008;-73
2021/04/17 06:15:44;;;;;;;18.80;11.70;;;4.30;66.90;;;;;;6201959;23;20162;-72
2021/04/17 06:18:09;;;;;;;20.02;11.98;;;4.20;67.40;;;;;;6145714;23;20249;-68
2021/04/17 06:20:35;;;;;;;18.63;11.98;;;4.30;67.30;;;;;;6194754;23;20005;-72
2021/04/17 06:23:01;;;;;;;19.63;11.52;;;4.50;66.90;;;;;;6195821;23;20020;-69
2021/04/17 06:25:26;;;;;;;19.40;11.75;;;4.60;67.30;;;;;;6197956;23;20016;-67
2021/04/17 06:27:52;;;;;;;20.38;12.20;;;4.80;66.70;;;;;;6175382;23;20016;-71
2021/04/17 06:30:18;;;;;;;18.20;11.63;;;4.90;66.30;;;;;;6177284;23;20052;-69
2021/04/17 06:32:43;;;;;;;17.98;12.43;;;5.00;66.00;;;;;;6195170;23;20040;-73
2021/04/17 06:35:10;;;;;;;17.98;12.25;;;5.10;66.30;;;;;;6194707;23;20001;-66
2021/04/17 06:37:35;;;;;;;17.77;12.30;;;5.40;65.30;;;;;;6197331;23;20013;-73
2021/04/17 06:40:01;;;;;;;22.33;12.02;;;5.40;64.40;;;;;;6149603;23;20005;-74
2021/04/17 06:42:27;;;;;;;18.42;12.02;;;5.20;64.70;;;;;;6176993;23;20051;-67
2021/04/17 06:44:53;;;;;;;20.48;12.73;;;5.30;65.80;;;;;;6205164;23;20206;-69
2021/04/17 06:47:18;;;;;;;22.08;13.70;;;5.20;65.70;;;;;;6169693;23;19996;-72
2021/04/17 06:49:44;;;;;;;19.55;13.07;;;5.40;65.80;;;;;;6170726;23;20001;-73
2021/04/17 06:52:10;;;;;;;20.27;12.77;;;5.60;65.00;;;;;;6173760;23;20041;-72
2021/04/17 06:54:36;;;;;;;20.42;12.88;;;5.80;64.50;;;;;;6202241;23;20005;-73
2021/04/17 06:57:02;;;;;;;24.13;14.27;;;5.90;64.50;;;;;;6180017;23;20303;-73
2021/04/17 06:59:29;;;;;;;23.15;13.38;;;5.90;64.80;;;;;;6143446;23;20256;-72
2021/04/17 07:01:55;;;;;;;23.60;14.30;;;5.90;64.60;;;;;;6170698;23;20016;-74
2021/04/17 07:04:20;;;;;;;23.35;15.35;;;6.00;64.30;;;;;;6172926;23;20196;-74
2021/04/17 07:06:46;;;;;;;23.83;14.18;;;5.90;65.40;;;;;;6201502;23;20008;-70
2021/04/17 07:09:13;;;;;;;22.63;14.32;;;5.90;64.20;;;;;;6206386;23;20004;-74
2021/04/17 07:11:38;;;;;;;25.95;14.43;;;5.70;65.60;;;;;;6144245;23;20048;-70
2021/04/17 07:14:13;;;;;;;24.27;14.65;;;5.90;66.00;;;;;;6195251;23;20068;-67
2021/04/17 07:17:01;;;;;;;26.23;16.13;;;5.70;65.60;;;;;;6171963;23;20020;-68
2021/04/17 07:19:49;;;;;;;24.63;15.60;;;5.60;66.80;;;;;;6197167;23;20032;-67
2021/04/17 07:22:26;;;;;;;24.75;15.00;;;5.80;67.10;;;;;;6199258;23;20009;-66
2021/04/17 07:24:56;;;;;;;26.48;15.40;;;5.90;66.80;;;;;;6150525;23;20311;-67
2021/04/17 07:27:36;;;;;;;23.02;14.75;;;6.00;66.50;;;;;;6202031;23;20220;-75
2021/04/17 07:30:23;;;;;;;23.92;15.45;;;6.10;66.40;;;;;;6194466;23;20195;-71
2021/04/17 07:33:01;;;;;;;26.05;15.98;;;6.20;66.80;;;;;;6183847;23;20035;-72
2021/04/17 07:35:31;;;;;;;28.58;17.15;;;6.20;67.10;;;;;;6194926;23;20285;-74
2021/04/17 07:38:12;;;;;;;24.88;15.43;;;6.00;67.40;;;;;;6173526;23;20065;-68
2021/04/17 07:40:37;;;;;;;23.35;14.52;;;5.90;68.20;;;;;;6174004;23;20005;-72
2021/04/17 07:43:03;;;;;;;20.65;13.65;;;5.80;68.40;;;;;;6175882;23;20020;-69
2021/04/17 07:45:30;;;;;;;21.60;14.27;;;5.90;69.00;;;;;;6204667;23;20001;-69
2021/04/17 07:48:00;;;;;;;23.05;14.63;;;5.90;69.10;;;;;;6171965;23;20008;-71
2021/04/17 07:50:32;;;;;;;23.63;14.25;;;5.70;70.20;;;;;;6195764;23;20013;-70
2021/04/17 07:52:58;;;;;;;28.77;16.00;;;5.90;70.60;;;;;;6164818;23;20028;-70
2021/04/17 07:55:30;;;;;;;27.15;16.00;;;6.20;70.30;;;;;;6198966;23;20185;-69
2021/04/17 07:57:56;;;;;;;25.05;15.00;;;6.30;70.70;;;;;;6200555;23;20020;-69
2021/04/17 08:00:23;;;;;;;25.55;14.20;;;6.40;70.50;;;;;;6178650;23;20170;-69
2021/04/17 08:02:51;;;;;;;23.33;14.35;;;6.50;70.20;;;;;;6206289;23;20355;-77
2021/04/17 08:05:17;;;;;;;21.73;14.02;;;6.60;70.30;;;;;;6195607;23;20005;-66
2021/04/17 08:07:43;;;;;;;21.83;14.25;;;6.40;69.90;;;;;;6148416;23;20028;-80
2021/04/17 08:10:09;;;;;;;24.15;14.15;;;6.50;70.20;;;;;;6200521;23;20005;-73
2021/04/17 08:12:36;;;;;;;24.83;13.80;;;6.40;70.00;;;;;;6177690;23;20212;-75
2021/04/17 08:15:03;;;;;;;24.70;13.88;;;6.30;70.50;;;;;;6157496;23;20001;-76
2021/04/17 08:17:29;;;;;;;19.95;12.52;;;6.40;70.70;;;;;;6169718;23;20289;-71
2021/04/17 08:19:57;;;;;;;19.40;12.43;;;6.40;70.20;;;;;;6172338;23;20043;-69
2021/04/17 08:22:23;;;;;;;20.20;11.75;;;6.70;69.50;;;;;;6174007;23;20208;-72
2021/04/17 08:24:48;;;;;;;19.33;11.75;;;6.30;68.50;;;;;;6176634;23;20009;-70
2021/04/17 08:27:14;;;;;;;17.90;11.45;;;6.30;68.80;;;;;;6203748;23;20064;-66
2021/04/17 08:29:44;;;;;;;20.02;12.15;;;6.30;69.80;;;;;;6181437;23;20001;-71
2021/04/17 08:32:34;;;;;;;20.10;12.02;;;6.50;69.80;;;;;;6146800;23;20012;-71
2021/04/17 08:35:10;;;;;;;19.65;12.20;;;6.40;67.60;;;;;;6198005;23;20166;-73
2021/04/17 08:37:56;;;;;;;19.48;12.90;;;6.40;69.10;;;;;;6197981;23;20009;-69
2021/04/17 08:40:37;;;;;;;23.60;14.25;;;6.50;68.80;;;;;;6198755;23;20002;-69
2021/04/17 08:43:03;;;;;;;22.13;14.82;;;6.80;68.90;;;;;;6202210;23;20319;-69
2021/04/17 08:45:29;;;;;;;22.75;14.77;;;6.90;68.70;;;;;;6177473;23;19997;-67
2021/04/17 08:47:56;;;;;;;22.35;15.40;;;6.80;68.90;;;;;;6205640;23;20001;-69
2021/04/17 08:50:36;;;;;;;21.02;14.18;;;6.90;68.50;;;;;;6195292;23;20291;-71
2021/04/17 08:53:11;;;;;;;21.55;14.30;;;6.80;67.80;;;;;;6196071;23;20036;-69
2021/04/17 08:55:37;;;;;;;22.33;14.20;;;6.80;68.40;;;;;;6197918;23;20016;-72
2021/04/17 08:58:22;;;;;;;22.13;14.00;;;6.90;68.70;;;;;;6194680;23;20012;-74
2021/04/17 09:00:51;;;;;;;17.30;12.52;;;6.80;67.70;;;;;;6177762;23;20184;-71
2021/04/17 09:03:35;;;;;;;17.90;12.25;;;6.80;68.30;;;;;;6204830;23;20021;-73
2021/04/17 09:06:00;;;;;;;18.50;12.25;;;6.90;67.90;;;;;;6195570;23;19993;-73
2021/04/17 09:08:26;;;;;;;19.40;12.80;;;7.00;68.40;;;;;;6169176;23;20016;-66
2021/04/17 09:10:53;;;;;;;20.88;11.63;;;7.10;68.10;;;;;;6196409;23;20091;-70
2021/04/17 09:13:21;;;;;;;18.63;11.30;;;7.40;67.30;;;;;;6198644;23;20015;-67
2021/04/17 09:15:54;;;;;;;18.33;11.73;;;7.60;66.30;;;;;;6201019;23;20077;-72
2021/04/17 09:18:35;;;;;;;18.33;11.57;;;7.80;65.60;;;;;;6202848;23;20028;-70
2021/04/17 09:21:04;;;;;;;;;;;8.00;64.80;;;;;;6207667;23;20039;-68
2021/04/17 09:23:41;;;;;;;14.10;9.13;;;8.00;64.40;;;;;;6195933;23;20258;-68
2021/04/17 09:26:07;;;;;;;12.05;7.70;;;8.00;63.50;;;;;;6170473;23;20009;-70
2021/04/17 09:28:39;;;;;;;11.20;7.53;;;8.10;61.80;;;;;;6148069;23;20009;-75
2021/04/17 09:31:06;;;;;;;13.65;7.70;;;8.30;61.70;;;;;;6199914;23;20009;-70
2021/04/17 09:33:31;;;;;;;11.80;6.93;;;8.40;61.20;;;;;;6201114;23;20001;-73
2021/04/17 09:35:57;;;;;;;12.50;5.88;;;8.50;61.10;;;;;;6205420;23;20024;-74
2021/04/17 09:38:23;;;;;;;8.00;5.05;;;8.50;59.10;;;;;;6168989;23;20216;-74
2021/04/17 09:40:53;;;;;;;7.75;5.25;;;8.20;58.10;;;;;;6147760;23;20005;-69
2021/04/17 09:43:23;;;;;;;8.43;5.35;;;8.30;59.30;;;;;;6196972;23;20120;-72
2021/04/17 09:45:50;;;;;;;12.30;5.00;;;8.30;58.90;;;;;;6200574;23;20025;-71
2021/04/17 09:48:17;;;;;;;14.48;5.97;;;8.40;58.40;;;;;;6169010;23;20005;-73
2021/04/17 09:50:42;;;;;;;8.75;5.18;;;8.50;58.70;;;;;;6180934;23;20001;-71
2021/04/17 09:53:09;;;;;;;10.57;6.15;;;8.70;58.00;;;;;;6195355;23;20044;-69
2021/04/17 09:55:49;;;;;;;9.60;6.00;;;8.40;56.30;;;;;;6144167;23;20073;-70
2021/04/17 09:58:23;;;;;;;13.88;6.55;;;8.30;56.10;;;;;;6174119;23;20057;-73
2021/04/17 10:00:49;;;;;;;12.57;6.65;;;8.30;57.70;;;;;;6119438;23;20080;-71
2021/04/17 10:03:30;;;;;;;12.20;6.13;;;8.70;58.70;;;;;;6177564;23;20347;-75
2021/04/17 10:05:56;;;;;;;10.27;6.65;;;8.90;57.20;;;;;;6182012;23;20001;-71
2021/04/17 10:08:33;;;;;;;11.70;6.75;;;9.00;55.90;;;;;;6192963;23;20025;-73
2021/04/17 10:10:59;;;;;;;12.55;6.97;;;9.10;54.70;;;;;;6147149;23;20013;-67
2021/04/17 10:13:44;;;;;;;13.52;7.15;;;9.40;56.50;;;;;;6171695;23;20188;-71
2021/04/17 10:16:10;;;;;;;10.55;7.20;;;9.90;54.90;;;;;;6126347;23;20012;-71
2021/04/17 10:18:36;;;;;;;12.57;7.35;;;10.00;51.50;;;;;;6151942;23;20005;-71
2021/04/17 10:21:03;;;;;;;13.10;6.75;;;9.90;52.20;;;;;;6180587;23;20008;-74
2021/04/17 10:23:29;;;;;;;14.63;7.28;;;9.90;52.40;;;;;;6169036;23;20013;-73
2021/04/17 10:26:10;;;;;;;10.52;7.13;;;10.00;53.60;;;;;;6195831;23;20245;-70
2021/04/17 10:28:37;;;;;;;12.65;7.07;;;9.80;51.10;;;;;;6197278;23;20235;-74
2021/04/17 10:31:18;;;;;;;11.75;6.90;;;9.60;52.40;;;;;;6199495;23;20013;-75
2021/04/17 10:33:44;;;;;;;;;;;9.30;53.90;;;;;;6177127;23;20296;-71
2021/04/17 10:36:21;;;;;;;13.10;6.95;;;9.40;54.40;;;;;;6220340;23;19896;-70
2021/04/17 10:38:47;;;;;;;9.50;6.70;;;9.50;52.70;;;;;;6193661;23;20036;-68
2021/04/17 10:41:25;;;;;;;10.93;7.03;;;9.50;53.80;;;;;;6145662;23;20020;-68
2021/04/17 10:44:12;;;;;;;10.68;7.60;;;9.70;53.00;;;;;;6195832;23;20052;-72
2021/04/17 10:46:40;;;;;;;13.55;7.90;;;9.80;53.40;;;;;;6173345;23;20240;-69
2021/04/17 10:49:06;;;;;;;11.73;8.10;;;9.50;54.60;;;;;;6174563;23;20009;-71
2021/04/17 10:51:35;;;;;;;12.25;7.53;;;9.50;54.00;;;;;;6196735;23;20028;-68
2021/04/17 10:54:01;;;;;;;12.30;8.18;;;9.10;52.40;;;;;;6206250;23;20338;-73
2021/04/17 10:56:28;;;;;;;12.65;8.30;;;8.90;53.60;;;;;;6168753;23;20013;-76
2021/04/17 10:59:04;;;;;;;12.75;7.05;;;9.30;55.50;;;;;;6171210;23;20009;-73
2021/04/17 11:01:36;;;;;;;14.60;7.93;;;9.40;54.20;;;;;;6197015;23;20051;-71
2021/04/17 11:04:03;;;;;;;14.75;8.02;;;9.50;53.80;;;;;;6174846;23;20011;-67
2021/04/17 11:06:29;;;;;;;13.52;7.82;;;9.70;53.70;;;;;;6176715;23;20013;-66
2021/04/17 11:09:18;;;;;;;10.70;7.60;;;9.70;53.10;;;;;;6204598;23;20053;-66
2021/04/17 11:12:00;;;;;;;11.10;7.70;;;9.40;53.10;;;;;;6168852;23;20015;-69
2021/04/17 11:14:27;;;;;;;14.02;7.78;;;9.40;53.50;;;;;;6193620;23;20196;-66
2021/04/17 11:16:53;;;;;;;13.60;7.22;;;9.40;53.70;;;;;;6195713;23;20195;-67
2021/04/17 11:19:33;;;;;;;10.95;7.30;;;9.40;52.70;;;;;;6167372;23;20013;-67
2021/04/17 11:22:05;;;;;;;13.48;7.97;;;9.40;53.70;;;;;;6200725;23;20020;-67
2021/04/17 11:24:30;;;;;;;10.63;7.43;;;9.30;52.80;;;;;;6200866;23;20051;-68
2021/04/17 11:26:56;;;;;;;11.55;6.93;;;9.30;53.80;;;;;;6204255;23;20224;-68
2021/04/17 11:29:22;;;;;;;12.55;7.65;;;9.40;51.90;;;;;;6195080;23;20009;-66
2021/04/17 11:31:47;;;;;;;13.18;7.25;;;9.40;52.50;;;;;;6197043;23;20064;-66
2021/04/17 11:34:13;;;;;;;10.50;7.32;;;9.50;51.30;;;;;;6199601;23;20200;-67
2021/04/17 11:36:38;;;;;;;9.70;6.88;;;9.50;51.30;;;;;;6201797;23;20005;-67
2021/04/17 11:39:05;;;;;;;9.35;6.25;;;9.40;51.10;;;;;;6205934;23;19997;-71
2021/04/17 11:41:30;;;;;;;11.23;7.13;;;9.30;51.40;;;;;;6192742;23;20013;-69
2021/04/17 11:43:56;;;;;;;10.55;6.75;;;9.50;52.80;;;;;;6196559;23;20005;-71
2021/04/17 11:46:22;;;;;;;12.20;6.93;;;9.40;50.50;;;;;;6172791;23;20064;-68
2021/04/17 11:48:50;;;;;;;13.80;7.10;;;9.40;51.80;;;;;;6199189;23;20083;-71
2021/04/17 11:51:17;;;;;;;11.30;6.30;;;9.40;52.40;;;;;;6207473;23;20078;-74
2021/04/17 11:53:43;;;;;;;11.65;6.40;;;9.50;53.00;;;;;;6151195;23;19996;-72
2021/04/17 11:56:08;;;;;;;10.88;6.45;;;9.70;51.90;;;;;;6149277;23;20008;-71
2021/04/17 11:58:34;;;;;;;11.60;6.70;;;9.80;52.30;;;;;;6201891;23;20007;-69
2021/04/17 12:01:00;;;;;;;15.35;6.50;;;9.80;52.00;;;;;;6229084;23;20050;-71
2021/04/17 12:03:26;;;;;;;11.95;7.05;;;9.70;51.30;;;;;;6172085;23;20000;-68
2021/04/17 12:05:52;;;;;;;15.82;6.78;;;9.50;50.90;;;;;;6235940;23;20019;-72
2021/04/17 12:08:18;;;;;;;15.63;6.78;;;9.40;51.00;;;;;;6198211;23;19997;-68
2021/04/17 12:10:44;;;;;;;11.38;6.75;;;9.30;51.00;;;;;;6201105;23;20007;-62
2021/04/17 12:13:10;;;;;;;11.93;6.82;;;9.40;52.30;;;;;;6203301;23;20000;-65
2021/04/17 12:15:36;;;;;;;9.30;6.20;;;9.30;51.60;;;;;;6196519;23;20008;-67
2021/04/17 12:18:01;;;;;;;15.00;6.72;;;9.30;51.60;;;;;;6184430;23;20191;-66
2021/04/17 12:20:28;;;;;;;10.90;6.45;;;9.10;51.40;;;;;;6196960;23;20004;-70
2021/04/17 12:22:54;;;;;;;12.70;7.03;;;9.20;51.80;;;;;;6201200;23;20138;-68
2021/04/17 12:25:19;;;;;;;11.13;7.30;;;9.10;52.40;;;;;;6203628;23;20024;-68
2021/04/17 12:27:45;;;;;;;15.35;7.28;;;9.00;52.40;;;;;;6173439;23;20031;-69
2021/04/17 12:30:11;;;;;;;12.02;8.25;;;9.00;52.60;;;;;;6211709;23;20004;-66
2021/04/17 12:32:37;;;;;;;12.93;8.65;;;8.90;53.00;;;;;;6173849;23;20004;-66
2021/04/17 12:35:04;;;;;;;14.82;9.30;;;9.00;54.40;;;;;;6227433;23;20015;-70
2021/04/17 12:37:29;;;;;;;13.15;9.07;;;9.10;54.00;;;;;;6178831;23;20009;-70
2021/04/17 12:39:55;;;;;;;24.05;9.27;;;8.90;52.80;;;;;;6205608;23;20024;-67
2021/04/17 12:42:20;;;;;;;14.50;9.32;;;8.80;54.40;;;;;;6183088;23;20288;-71
2021/04/17 12:44:46;;;;;;;14.70;9.50;;;8.60;53.90;;;;;;6200986;23;20007;-68
2021/04/17 12:47:11;;;;;;;20.92;10.10;;;8.80;54.50;;;;;;6226722;23;20005;-69
2021/04/17 12:49:37;;;;;;;14.98;10.15;;;8.70;54.40;;;;;;6149072;23;20008;-67